Time;durP1;ratioP1;P1;durP2;ratioP2;P2;SDS_P1;SDS_P2;PMS_P1;PMS_P2;Temp;Humidity;BMP_temperature;BMP_pressure;BME280_temperature;BME280_humidity;BME280_pressure;Samples;Min_cycle;Max_cycle;Signal;HPM_P1;HPM_P2
2023/08/24 00:01:12;;;;;;;11.57;7.15;;;;;;;15.53;67.04;100719.52;1677579;85;21306;-56
2023/08/24 00:04:18;;;;;;;11.03;7.25;;;;;;;15.51;67.13;100718.86;1708051;84;21441;-55
2023/08/24 00:07:27;;;;;;;9.18;6.95;;;;;;;15.48;67.20;100724.78;1687336;84;21256;-55
2023/08/24 00:10:33;;;;;;;11.20;6.53;;;;;;;15.45;67.31;100718.28;1708248;84;21358;-55
2023/08/24 00:13:39;;;;;;;11.50;7.70;;;;;;;15.42;67.39;100721.44;1672574;85;21367;-56
2023/08/24 00:16:46;;;;;;;11.53;7.80;;;;;;;15.40;67.47;100720.77;1677018;85;21234;-55
2023/08/24 00:19:51;;;;;;;13.18;7.15;;;;;;;15.38;67.53;100718.73;1695413;84;21361;-55
2023/08/24 00:22:57;;;;;;;12.53;7.28;;;;;;;15.36;67.61;100719.45;1675580;85;21891;-56
2023/08/24 00:26:03;;;;;;;16.37;7.47;;;;;;;15.34;67.67;100720.16;1687586;85;21266;-54
2023/08/24 00:29:11;;;;;;;12.23;7.35;;;;;;;15.35;67.85;100719.10;1716423;83;21239;-55
2023/08/24 00:32:17;;;;;;;12.85;7.10;;;;;;;15.35;68.01;100719.10;1687680;84;21240;-56
2023/08/24 00:35:24;;;;;;;10.08;6.70;;;;;;;15.35;68.09;100721.86;1710472;84;21227;-55
2023/08/24 00:38:30;;;;;;;10.88;7.65;;;;;;;15.33;68.14;100722.61;1687915;84;21411;-55
2023/08/24 00:41:37;;;;;;;12.20;6.75;;;;;;;15.30;68.11;100721.59;1710544;84;21768;-55
2023/08/24 00:44:43;;;;;;;11.25;6.87;;;;;;;15.24;68.08;100719.63;1687750;85;21283;-54
2023/08/24 00:47:52;;;;;;;11.08;6.90;;;;;;;15.19;68.13;100716.61;1686732;83;21776;-54
2023/08/24 00:50:58;;;;;;;12.20;6.95;;;;;;;15.15;68.18;100719.45;1690556;85;21616;-54
2023/08/24 00:54:03;;;;;;;11.38;7.20;;;;;;;15.12;68.25;100714.84;1687916;84;21248;-55
2023/08/24 00:57:08;;;;;;;10.03;6.33;;;;;;;15.11;68.45;100724.18;1671273;84;21952;-54
2023/08/24 01:00:14;;;;;;;11.30;7.17;;;;;;;15.12;68.64;100718.47;1749444;82;21871;-55
2023/08/24 01:03:20;;;;;;;10.50;6.37;;;;;;;15.13;68.75;100719.33;1732602;81;21860;-56
2023/08/24 01:06:27;;;;;;;11.38;6.75;;;;;;;15.11;68.77;100726.39;1687710;84;21721;-56
2023/08/24 01:09:33;;;;;;;16.48;7.45;;;;;;;15.06;68.70;100728.05;1748716;82;21342;-55
2023/08/24 01:13:08;;;;;;;16.05;7.33;;;;;;;15.01;68.66;100725.88;1687672;84;21736;-55
2023/08/24 01:16:27;;;;;;;13.45;8.05;;;;;;;14.99;68.79;100724.70;1749157;82;21404;-55
2023/08/24 01:19:45;;;;;;;11.83;7.65;;;;;;;14.97;68.90;100722.66;1716655;83;21219;-55
2023/08/24 01:23:34;;;;;;;11.68;7.22;;;;;;;14.95;69.03;100723.38;1687762;84;21759;-55
2023/08/24 01:26:39;;;;;;;15.70;7.90;;;;;;;14.94;69.07;100729.95;1749751;82;21358;-55
2023/08/24 01:29:46;;;;;;;11.33;6.40;;;;;;;14.90;69.16;100731.91;1687686;84;21208;-56
2023/08/24 01:32:51;;;;;;;10.68;6.10;;;;;;;14.86;69.21;100731.44;1749827;82;21365;-55
2023/08/24 01:35:58;;;;;;;12.40;6.22;;;;;;;14.85;69.31;100731.64;1687665;84;21705;-55
2023/08/24 01:39:15;;;;;;;9.55;6.28;;;;;;;14.81;69.36;100727.55;1749933;82;21211;-55
2023/08/24 01:42:24;;;;;;;10.95;6.20;;;;;;;14.78;69.28;100734.31;1687696;84;21227;-54
2023/08/24 01:45:30;;;;;;;9.68;6.65;;;;;;;14.72;69.17;100735.61;1750774;81;21416;-55
2023/08/24 01:48:37;;;;;;;11.78;6.65;;;;;;;14.65;69.05;100738.83;1687684;84;21208;-55
2023/08/24 01:51:45;;;;;;;25.65;12.33;;;;;;;14.56;69.05;100733.95;1750268;81;21377;-55
2023/08/24 01:54:52;;;;;;;22.42;12.18;;;;;;;14.55;69.22;100730.87;1688057;84;21334;-55
2023/08/24 01:57:57;;;;;;;24.77;13.35;;;;;;;14.54;69.30;100738.78;1749903;82;21408;-55
2023/08/24 02:01:02;;;;;;;60.85;33.38;;;;;;;14.54;69.42;100738.78;1749893;81;21346;-56
2023/08/24 02:04:07;;;;;;;142.57;72.92;;;;;;;14.54;69.58;100729.69;1688017;83;21282;-56
2023/08/24 02:07:14;;;;;;;93.97;50.98;;;;;;;14.57;69.80;100733.44;1749985;82;21243;-56
2023/08/24 02:10:19;;;;;;;103.35;54.38;;;;;;;14.56;69.81;100736.70;1687819;83;21245;-57
2023/08/24 02:13:24;;;;;;;126.20;60.33;;;;;;;14.54;69.73;100728.31;1750088;82;21370;-55
2023/08/24 02:16:30;;;;;;;99.70;52.88;;;;;;;14.50;69.67;100732.48;1688102;83;21198;-55
2023/08/24 02:19:38;;;;;;;84.65;44.03;;;;;;;14.50;69.75;100742.13;1750138;82;21378;-55
2023/08/24 02:22:43;;;;;;;66.47;37.33;;;;;;;14.50;69.87;100736.61;1688011;84;21395;-55
2023/08/24 02:25:50;;;;;;;61.77;32.15;;;;;;;14.47;69.89;100738.37;1750084;82;21409;-56
2023/08/24 02:28:56;;;;;;;48.85;29.67;;;;;;;14.46;69.91;100743.02;1687765;83;21241;-55
2023/08/24 02:32:03;;;;;;;52.60;27.55;;;;;;;14.46;69.96;100740.81;1750039;82;21393;-55
2023/08/24 02:35:08;;;;;;;24.55;14.25;;;;;;;14.44;70.02;100744.27;1687754;84;21843;-55
2023/08/24 02:38:14;;;;;;;39.92;20.25;;;;;;;14.42;70.08;100745.84;1750058;82;21378;-55
2023/08/24 02:41:20;;;;;;;24.85;14.38;;;;;;;14.41;70.11;100748.80;1688790;83;21324;-56
2023/08/24 02:44:28;;;;;;;19.75;11.48;;;;;;;14.41;70.21;100754.30;1750721;81;21376;-56
2023/08/24 02:47:33;;;;;;;23.65;12.55;;;;;;;14.40;70.25;100750.69;1687668;84;21749;-55
2023/08/24 02:50:41;;;;;;;19.17;11.53;;;;;;;14.41;70.33;100757.06;1744781;82;21378;-55
2023/08/24 02:53:46;;;;;;;24.23;12.98;;;;;;;14.42;70.45;100756.00;1672370;85;21821;-55
2023/08/24 02:56:53;;;;;;;19.55;11.18;;;;;;;14.45;70.59;100764.74;1736246;82;21234;-56
2023/08/24 02:59:59;;;;;;;16.77;10.80;;;;;;;14.48;70.78;100759.36;1672849;85;21309;-55
2023/08/24 03:03:09;;;;;;;18.32;10.82;;;;;;;14.52;70.88;100760.19;1736500;82;21607;-55
2023/08/24 03:06:14;;;;;;;19.05;11.12;;;;;;;14.52;70.82;100757.95;1736384;82;21866;-55
2023/08/24 03:09:20;;;;;;;25.37;13.43;;;;;;;14.53;70.91;100756.38;1672665;85;21261;-55
2023/08/24 03:12:27;;;;;;;29.37;16.52;;;;;;;14.54;70.94;100760.83;1740087;82;21366;-55
2023/08/24 03:15:33;;;;;;;44.15;18.05;;;;;;;14.56;71.04;100768.90;1680135;85;21598;-56
2023/08/24 03:18:40;;;;;;;26.90;15.55;;;;;;;14.58;71.12;100769.56;1735723;82;21343;-54
2023/08/24 03:21:44;;;;;;;21.80;12.70;;;;;;;14.57;71.18;100772.84;1672231;85;21249;-54
2023/08/24 03:24:49;;;;;;;21.25;10.88;;;;;;;14.60;71.30;100774.38;1673010;86;21655;-54
2023/08/24 03:27:56;;;;;;;20.32;11.15;;;;;;;14.63;71.28;100782.25;1672619;84;21291;-53
2023/08/24 03:31:03;;;;;;;14.85;9.85;;;;;;;14.62;71.23;100777.77;1676460;85;21366;-53
2023/08/24 03:34:10;;;;;;;18.25;10.18;;;;;;;14.64;71.36;100786.70;1661831;86;21265;-55
2023/08/24 03:37:14;;;;;;;16.70;11.05;;;;;;;14.66;71.47;100781.35;1680578;85;21583;-55
2023/08/24 03:40:21;;;;;;;20.45;11.10;;;;;;;14.70;71.52;100793.69;1672869;84;21286;-54
2023/08/24 03:43:28;;;;;;;18.00;11.45;;;;;;;14.74;71.58;100793.64;1723103;82;21224;-53
2023/08/24 03:46:35;;;;;;;18.27;9.85;;;;;;;14.77;71.65;100793.26;1670231;84;21284;-54
2023/08/24 03:49:41;;;;;;;21.30;8.58;;;;;;;14.82;71.74;100788.54;1744343;82;21374;-54
2023/08/24 03:52:47;;;;;;;16.82;9.43;;;;;;;14.87;71.79;100803.44;1709836;83;21231;-53
2023/08/24 03:55:56;;;;;;;16.80;8.73;;;;;;;14.93;71.80;100793.55;1683603;85;21298;-54
2023/08/24 03:59:03;;;;;;;13.78;8.25;;;;;;;14.98;71.87;100794.66;1705711;83;21240;-53
2023/08/24 04:02:09;;;;;;;15.45;9.00;;;;;;;15.05;71.96;100797.50;1717336;82;21931;-54
2023/08/24 04:05:15;;;;;;;14.78;8.63;;;;;;;15.10;72.07;100796.39;1680058;85;21270;-55
2023/08/24 04:08:20;;;;;;;15.93;8.48;;;;;;;15.18;72.16;100798.17;1651974;86;21312;-54
2023/08/24 04:11:25;;;;;;;15.43;8.75;;;;;;;15.25;72.31;100801.36;1704921;83;21211;-55
2023/08/24 04:14:30;;;;;;;13.25;8.33;;;;;;;15.34;72.41;100801.55;1679252;85;21235;-53
2023/08/24 04:17:36;;;;;;;12.33;8.18;;;;;;;15.42;72.45;100804.73;1652463;86;21269;-53
2023/08/24 04:20:42;;;;;;;13.10;8.35;;;;;;;15.50;72.46;100803.22;1704999;83;21294;-53
2023/08/24 04:23:47;;;;;;;15.10;9.10;;;;;;;15.57;72.52;100806.36;1679505;85;21239;-54
2023/08/24 04:26:52;;;;;;;13.28;8.30;;;;;;;15.66;72.57;100810.72;1692868;84;21378;-54
2023/08/24 04:29:58;;;;;;;12.85;8.25;;;;;;;15.74;72.60;100806.95;1705218;84;21227;-54
2023/08/24 04:33:04;;;;;;;14.33;8.63;;;;;;;15.83;72.66;100813.52;1671046;85;21304;-54
2023/08/24 04:36:10;;;;;;;13.28;8.45;;;;;;;15.94;72.70;100806.59;1666874;85;21309;-55
2023/08/24 04:39:18;;;;;;;11.15;8.38;;;;;;;16.03;72.73;100809.00;1726463;82;21405;-54
2023/08/24 04:42:25;;;;;;;12.82;8.28;;;;;;;16.13;72.79;100806.75;1733947;82;21393;-54
2023/08/24 04:45:30;;;;;;;17.70;12.07;;;;;;;16.23;72.86;100800.35;1733568;82;21852;-55
2023/08/24 04:48:36;;;;;;;10.68;8.38;;;;;;;16.33;72.92;100806.34;1716208;82;21219;-55
2023/08/24 04:51:44;;;;;;;12.82;8.88;;;;;;;16.44;72.97;100807.19;1734106;82;21629;-53
2023/08/24 04:54:51;;;;;;;17.37;7.92;;;;;;;16.56;73.04;100808.00;1729536;82;21374;-54
2023/08/24 04:57:58;;;;;;;24.23;12.78;;;;;;;16.66;73.10;100801.58;1742296;82;21378;-51
2023/08/24 05:01:04;;;;;;;16.42;8.50;;;;;;;16.76;73.14;100797.92;1717162;82;21219;-52
2023/08/24 05:04:11;;;;;;;11.20;7.97;;;;;;;16.87;73.20;100795.39;1717474;83;21367;-50
2023/08/24 05:07:17;;;;;;;12.20;8.05;;;;;;;16.97;73.27;100792.24;1714061;83;21756;-53
2023/08/24 05:10:24;;;;;;;13.60;6.95;;;;;;;17.08;73.30;100795.79;1713199;81;21764;-54
2023/08/24 05:13:31;;;;;;;12.68;6.70;;;;;;;17.19;73.32;100796.57;1713295;82;21748;-54
2023/08/24 05:16:39;;;;;;;9.08;5.90;;;;;;;17.30;73.34;100790.45;1717116;83;21232;-55
2023/08/24 05:19:47;;;;;;;10.10;5.90;;;;;;;17.42;73.38;100788.77;1716820;81;21223;-55
2023/08/24 05:22:54;;;;;;;7.65;5.22;;;;;;;17.55;73.40;100797.13;1709842;83;21296;-55
2023/08/24 05:26:03;;;;;;;7.20;4.83;;;;;;;17.65;73.40;100787.86;1713069;82;21281;-54
2023/08/24 05:29:10;;;;;;;11.03;5.40;;;;;;;17.76;73.38;100789.99;1692741;83;21275;-53
2023/08/24 05:32:17;;;;;;;7.62;4.87;;;;;;;17.89;73.37;100790.00;1697385;83;21263;-54
2023/08/24 05:35:23;;;;;;;6.95;4.70;;;;;;;18.00;73.36;100786.59;1694099;81;21362;-54
2023/08/24 05:38:29;;;;;;;15.65;8.58;;;;;;;18.11;73.31;100783.17;1668079;84;21884;-54
2023/08/24 05:41:38;;;;;;;7.33;4.65;;;;;;;18.22;73.31;100783.90;1658999;85;21777;-55
2023/08/24 05:44:43;;;;;;;9.30;4.80;;;;;;;18.33;73.27;100787.39;1673744;83;21247;-55
2023/08/24 05:47:48;;;;;;;8.23;4.97;;;;;;;18.46;73.20;100790.18;1647230;87;21356;-55
2023/08/24 05:50:55;;;;;;;11.57;4.55;;;;;;;18.58;73.19;100788.46;1648188;86;21980;-55
2023/08/24 05:54:02;;;;;;;8.20;5.03;;;;;;;18.71;73.16;100792.55;1686841;81;21764;-55
2023/08/24 05:57:09;;;;;;;8.55;4.25;;;;;;;18.85;73.14;100786.44;1712925;84;21370;-55
2023/08/24 06:00:22;;;;;;;8.38;4.30;;;;;;;18.96;73.09;100788.52;1709304;82;21745;-54
2023/08/24 06:03:28;;;;;;;9.58;4.45;;;;;;;19.06;73.06;100788.36;1721031;82;21295;-55
2023/08/24 06:06:34;;;;;;;8.30;3.62;;;;;;;19.17;73.00;100785.44;1718272;82;21361;-55
2023/08/24 06:09:41;;;;;;;8.80;4.25;;;;;;;19.28;72.92;100785.59;1717863;82;21322;-55
2023/08/24 06:12:47;;;;;;;8.78;4.60;;;;;;;19.38;72.88;100778.17;1654567;85;21446;-55
2023/08/24 06:15:58;;;;;;;13.08;7.22;;;;;;;19.49;72.80;100779.41;1661524;85;21915;-56
2023/08/24 06:19:03;;;;;;;6.05;3.80;;;;;;;19.59;72.75;100783.91;1666385;85;21232;-56
2023/08/24 06:22:09;;;;;;;9.63;4.87;;;;;;;19.70;72.66;100779.02;1670078;84;21308;-55
2023/08/24 06:25:15;;;;;;;13.60;4.80;;;;;;;19.81;72.60;100783.31;1650129;85;21385;-55
2023/08/24 06:28:21;;;;;;;7.00;4.37;;;;;;;19.91;72.56;100779.50;1690253;83;21279;-53
2023/08/24 06:31:33;;;;;;;8.38;4.37;;;;;;;20.03;72.49;100786.53;1648625;84;21280;-54
2023/08/24 06:34:39;;;;;;;7.60;4.20;;;;;;;20.14;72.46;100789.99;1665031;84;21238;-55
2023/08/24 06:37:46;;;;;;;6.15;3.87;;;;;;;20.26;72.41;100793.75;1677572;84;21260;-54
2023/08/24 06:40:56;;;;;;;17.00;8.48;;;;;;;20.35;72.35;100787.66;1705976;82;21286;-54
2023/08/24 06:44:03;;;;;;;8.05;4.17;;;;;;;20.47;72.33;100790.55;1708171;82;21249;-53
2023/08/24 06:47:08;;;;;;;7.97;3.35;;;;;;;20.58;72.22;100793.95;1708013;82;21267;-53
2023/08/24 06:50:15;;;;;;;8.30;3.60;;;;;;;20.70;72.11;100782.35;1710143;82;21601;-53
2023/08/24 06:53:22;;;;;;;9.05;3.92;;;;;;;20.80;72.01;100791.02;1666673;85;21232;-54
2023/08/24 06:56:30;;;;;;;8.25;3.75;;;;;;;20.89;71.86;100788.75;1632588;86;21249;-54
2023/08/24 06:59:36;;;;;;;5.78;3.27;;;;;;;20.97;71.70;100786.55;1648484;85;21224;-55
2023/08/24 07:02:43;;;;;;;7.17;3.27;;;;;;;21.07;71.58;100779.89;1671730;85;21251;-53
2023/08/24 07:05:50;;;;;;;6.25;2.58;;;;;;;21.17;71.43;100789.91;1662497;85;21780;-54
2023/08/24 07:08:58;;;;;;;6.80;3.62;;;;;;;21.26;71.19;100782.95;1716463;82;22101;-54
2023/08/24 07:12:06;;;;;;;4.97;2.47;;;;;;;21.37;71.00;100792.44;1731924;82;21222;-52
2023/08/24 07:15:13;;;;;;;6.80;2.70;;;;;;;21.44;70.84;100784.28;1728577;82;21724;-54
2023/08/24 07:18:18;;;;;;;6.50;2.30;;;;;;;21.56;70.69;100788.51;1692978;82;21734;-54
2023/08/24 07:21:25;;;;;;;7.90;2.30;;;;;;;21.66;70.47;100786.83;1723629;82;21211;-54
2023/08/24 07:24:33;;;;;;;4.15;2.08;;;;;;;21.76;70.28;100780.71;1717980;82;21751;-55
2023/08/24 07:27:43;;;;;;;4.45;2.20;;;;;;;21.82;70.07;100779.22;1713802;82;21474;-54
2023/08/24 07:30:55;;;;;;;4.20;1.65;;;;;;;21.89;69.88;100775.78;1723357;82;21299;-55
2023/08/24 07:34:00;;;;;;;4.67;1.95;;;;;;;22.00;69.66;100774.09;1651934;86;21236;-55
2023/08/24 07:37:07;;;;;;;5.08;2.08;;;;;;;22.10;69.48;100777.97;1708239;84;21223;-54
2023/08/24 07:40:14;;;;;;;6.33;2.25;;;;;;;22.20;69.25;100777.38;1650206;85;21825;-55
2023/08/24 07:43:20;;;;;;;3.42;1.80;;;;;;;22.27;69.01;100775.86;1682770;84;21777;-55
2023/08/24 07:46:25;;;;;;;5.45;2.20;;;;;;;22.35;68.76;100769.38;1642901;86;21290;-55
2023/08/24 07:49:32;;;;;;;4.15;1.80;;;;;;;22.44;68.54;100763.73;1667343;85;21734;-56
2023/08/24 07:52:37;;;;;;;8.13;1.87;;;;;;;22.52;68.29;100780.13;1719949;82;21761;-53
2023/08/24 07:55:43;;;;;;;2.90;1.60;;;;;;;22.59;68.06;100770.23;1733956;82;21316;-54
2023/08/24 07:58:50;;;;;;;3.27;1.70;;;;;;;22.66;67.86;100783.53;1718308;82;21596;-55
2023/08/24 08:01:56;;;;;;;7.40;1.42;;;;;;;22.72;67.54;100783.94;1716951;82;21231;-55
2023/08/24 08:05:10;;;;;;;7.58;2.75;;;;;;;22.76;67.21;100778.16;1689506;84;21746;-54
2023/08/24 08:08:14;;;;;;;4.22;1.40;;;;;;;22.82;66.94;100770.19;1645566;86;21219;-53
2023/08/24 08:11:21;;;;;;;2.98;1.57;;;;;;;22.87;66.63;100772.55;1665630;85;22062;-54
2023/08/24 08:14:26;;;;;;;4.80;1.50;;;;;;;22.95;66.41;100778.30;1675634;85;21283;-52
2023/08/24 08:17:33;;;;;;;4.85;1.82;;;;;;;22.99;66.08;100773.36;1697189;84;21235;-55
2023/08/24 08:20:40;;;;;;;5.83;2.35;;;;;;;23.04;65.76;100773.47;1658460;85;21224;-54
2023/08/24 08:23:47;;;;;;;3.27;1.87;;;;;;;23.11;65.53;100775.59;1666766;85;21220;-54
2023/08/24 08:26:53;;;;;;;2.27;1.50;;;;;;;23.20;65.23;100774.62;1660148;85;21280;-53
2023/08/24 08:29:58;;;;;;;3.65;1.50;;;;;;;23.27;64.96;100776.23;1671165;84;21762;-53
2023/08/24 08:33:03;;;;;;;5.15;2.12;;;;;;;23.33;64.66;100772.97;1724860;82;21666;-54
2023/08/24 08:36:10;;;;;;;3.42;1.60;;;;;;;23.40;64.42;100772.29;1713509;82;21772;-53
2023/08/24 08:39:17;;;;;;;9.18;7.65;;;;;;;23.48;64.16;100765.73;1720167;82;21270;-54
2023/08/24 08:42:23;;;;;;;3.20;1.85;;;;;;;23.55;63.86;100766.97;1658901;85;21303;-55
2023/08/24 08:45:29;;;;;;;3.17;1.42;;;;;;;23.64;63.51;100769.68;1633448;86;21748;-52
2023/08/24 08:48:35;;;;;;;4.00;1.55;;;;;;;23.71;63.20;100761.96;1637992;85;21261;-55
2023/08/24 08:51:41;;;;;;;3.40;1.57;;;;;;;23.77;62.88;100756.75;1710706;82;21259;-55
2023/08/24 08:54:47;;;;;;;5.50;1.47;;;;;;;23.85;62.56;100753.54;1725876;82;21205;-56
2023/08/24 08:57:58;;;;;;;4.20;1.32;;;;;;;23.93;62.23;100750.32;1712044;82;21813;-54
2023/08/24 09:01:04;;;;;;;3.50;1.77;;;;;;;23.98;61.87;100757.44;1695715;83;21737;-54
2023/08/24 09:04:10;;;;;;;4.00;1.50;;;;;;;24.04;61.60;100754.19;1710071;82;21908;-53
2023/08/24 09:07:15;;;;;;;3.45;1.77;;;;;;;24.12;61.33;100743.97;1709053;82;21584;-55
2023/08/24 09:10:21;;;;;;;3.75;1.60;;;;;;;24.21;61.06;100745.23;1669686;85;21337;-57
2023/08/24 09:13:27;;;;;;;3.72;1.92;;;;;;;24.35;60.73;100748.81;1675759;85;21788;-56
2023/08/24 09:16:36;;;;;;;4.92;1.67;;;;;;;24.47;60.36;100738.34;1656883;86;21223;-55
2023/08/24 09:19:42;;;;;;;3.17;1.42;;;;;;;24.57;59.96;100734.30;1655217;85;21294;-55
2023/08/24 09:22:48;;;;;;;5.55;1.55;;;;;;;24.67;59.65;100741.45;1678386;85;21283;-55
2023/08/24 09:25:55;;;;;;;2.70;1.70;;;;;;;24.81;59.40;100739.99;1647313;86;21766;-55
2023/08/24 09:29:01;;;;;;;3.02;1.60;;;;;;;24.95;59.15;100745.49;1659410;85;21256;-55
2023/08/24 09:32:07;;;;;;;3.62;1.85;;;;;;;25.00;58.71;100747.50;1645173;85;21216;-54
2023/08/24 09:35:17;;;;;;;5.42;1.90;;;;;;;24.93;58.32;100746.84;1648611;86;21368;-55
2023/08/24 09:38:29;;;;;;;2.92;1.72;;;;;;;24.85;58.00;100739.75;1651056;87;21270;-54
2023/08/24 09:41:48;;;;;;;6.92;1.87;;;;;;;24.78;57.66;100737.69;1704646;82;21200;-55
2023/08/24 09:44:54;;;;;;;5.72;1.90;;;;;;;24.82;57.44;100738.02;1721313;82;21275;-53
2023/08/24 09:48:00;;;;;;;4.60;1.65;;;;;;;24.92;57.17;100726.41;1736911;82;21793;-54
2023/08/24 09:51:05;;;;;;;5.08;1.87;;;;;;;24.92;56.84;100737.61;1688940;83;21737;-53
2023/08/24 09:54:16;;;;;;;3.27;1.60;;;;;;;24.83;56.56;100729.92;1698093;83;21191;-54
2023/08/24 09:57:22;;;;;;;3.67;1.67;;;;;;;24.86;56.40;100729.41;1700697;83;21366;-54
2023/08/24 10:00:31;;;;;;;4.90;1.87;;;;;;;25.04;56.18;100723.44;1715135;81;21763;-52
2023/08/24 10:03:40;;;;;;;3.72;1.90;;;;;;;25.23;55.89;100717.78;1663331;83;21272;-52
2023/08/24 10:06:47;;;;;;;6.03;2.40;;;;;;;25.43;55.63;100722.25;1706743;83;21969;-53
2023/08/24 10:10:01;;;;;;;5.72;1.95;;;;;;;25.60;55.32;100710.91;1706324;82;21223;-53
2023/08/24 10:13:12;;;;;;;5.67;2.55;;;;;;;25.74;55.02;100699.53;1701273;83;21228;-53
2023/08/24 10:16:18;;;;;;;5.00;1.92;;;;;;;25.97;54.83;100705.61;1715353;82;21282;-50
2023/08/24 10:19:24;;;;;;;4.60;1.90;;;;;;;26.16;54.53;100704.11;1712610;82;21247;-52
2023/08/24 10:22:29;;;;;;;4.70;1.70;;;;;;;26.32;54.20;100700.87;1741118;80;21270;-53
2023/08/24 10:25:35;;;;;;;7.12;1.90;;;;;;;26.38;53.76;100699.77;1733617;82;21219;-53
2023/08/24 10:28:41;;;;;;;6.05;1.82;;;;;;;26.41;53.47;100708.51;1724442;80;21223;-53
2023/08/24 10:31:50;;;;;;;4.25;1.87;;;;;;;26.52;53.18;100701.52;1734398;82;21213;-53
2023/08/24 10:34:56;;;;;;;3.22;1.60;;;;;;;26.68;52.94;100702.78;1728851;80;21212;-53
2023/08/24 10:38:06;;;;;;;4.53;1.60;;;;;;;26.84;52.64;100703.69;1694644;83;21279;-55
2023/08/24 10:41:16;;;;;;;3.52;1.72;;;;;;;26.98;52.35;100691.66;1686410;83;21235;-58
2023/08/24 10:44:41;;;;;;;4.72;1.40;;;;;;;27.14;52.03;100693.41;1670998;84;21251;-54
2023/08/24 10:47:53;;;;;;;3.60;1.35;;;;;;;27.29;51.73;100690.65;1695210;82;21235;-55
2023/08/24 10:51:26;;;;;;;2.58;1.40;;;;;;;27.44;51.45;100693.50;1733015;80;21196;-55
2023/08/24 10:54:37;;;;;;;6.05;2.47;;;;;;;27.35;50.78;100694.33;1737392;80;21228;-55
2023/08/24 10:57:47;;;;;;;3.00;1.45;;;;;;;27.15;50.27;100689.45;1680102;85;21208;-54
2023/08/24 11:01:05;;;;;;;4.37;1.60;;;;;;;27.03;50.11;100678.19;1690524;83;21259;-54
2023/08/24 11:04:12;;;;;;;3.62;1.50;;;;;;;27.17;50.04;100676.53;1707781;82;21800;-56
2023/08/24 11:07:16;;;;;;;5.42;1.80;;;;;;;27.33;49.87;100677.73;1727443;81;21235;-56
2023/08/24 11:10:22;;;;;;;2.95;1.80;;;;;;;27.51;49.70;100672.14;1712576;81;21196;-55
2023/08/24 11:13:28;;;;;;;6.05;1.80;;;;;;;27.65;49.40;100670.45;1748131;82;21235;-54
2023/08/24 11:16:51;;;;;;;3.62;1.65;;;;;;;27.58;48.93;100665.10;1729342;80;21223;-55
2023/08/24 11:19:51;;;;;;;2.95;1.62;;;;;;;27.39;48.41;100670.98;1738980;81;21207;-54
2023/08/24 11:22:44;;;;;;;4.33;1.60;;;;;;;27.24;48.25;100669.51;1743864;80;21222;-55
2023/08/24 11:25:54;;;;;;;4.05;1.50;;;;;;;27.30;48.23;100667.60;1664619;83;21220;-55
2023/08/24 11:29:03;;;;;;;4.35;1.70;;;;;;;27.39;48.04;100656.93;1692006;83;21255;-54
2023/08/24 11:32:09;;;;;;;5.30;1.60;;;;;;;27.33;47.70;100662.27;1698028;82;21302;-54
2023/08/24 11:35:18;;;;;;;6.45;1.87;;;;;;;27.16;47.31;100658.81;1670289;83;21757;-55
2023/08/24 11:38:23;;;;;;;4.80;1.52;;;;;;;27.09;47.18;100649.81;1689547;83;21935;-56
2023/08/24 11:41:28;;;;;;;2.62;1.45;;;;;;;27.15;47.27;100647.29;1730876;80;21234;-56
2023/08/24 11:44:36;;;;;;;6.67;1.90;;;;;;;27.29;47.23;100648.47;1730196;81;22037;-55
2023/08/24 11:47:43;;;;;;;3.58;1.92;;;;;;;27.35;46.98;100631.88;1684650;85;21297;-56
2023/08/24 11:50:49;;;;;;;2.65;1.40;;;;;;;27.45;46.92;100632.45;1733983;81;21226;-56
2023/08/24 11:53:55;;;;;;;7.80;1.80;;;;;;;27.59;46.85;100631.61;1733513;80;21219;-57
2023/08/24 11:57:05;;;;;;;5.80;1.92;;;;;;;27.71;46.70;100627.12;1725688;81;21557;-56
2023/08/24 12:00:13;;;;;;;3.00;1.60;;;;;;;27.74;46.27;100621.77;1735603;81;21779;-56
2023/08/24 12:03:21;;;;;;;2.10;1.42;;;;;;;27.76;46.03;100623.75;1694320;83;21239;-55
2023/08/24 12:06:26;;;;;;;3.72;1.30;;;;;;;27.80;45.83;100613.59;1711356;83;21236;-54
2023/08/24 12:09:35;;;;;;;3.62;1.60;;;;;;;27.83;45.65;100613.03;1683871;85;22179;-55
2023/08/24 12:12:41;;;;;;;2.72;1.45;;;;;;;27.77;45.34;100615.58;1682883;83;21268;-55
2023/08/24 12:15:50;;;;;;;3.58;1.70;;;;;;;27.68;44.99;100624.88;1693435;83;21981;-54
2023/08/24 12:19:05;;;;;;;5.12;1.62;;;;;;;27.50;44.65;100620.65;1690949;83;21240;-56
2023/08/24 12:22:13;;;;;;;4.15;1.67;;;;;;;27.35;44.48;100633.87;1688496;83;21231;-54
2023/08/24 12:25:19;;;;;;;3.30;1.60;;;;;;;27.09;44.17;100632.95;1691196;83;21272;-55
2023/08/24 12:28:27;;;;;;;4.72;1.47;;;;;;;26.83;44.05;100619.12;1678155;84;21865;-55
2023/08/24 12:31:37;;;;;;;2.22;1.25;;;;;;;26.68;44.15;100610.08;1667268;84;21539;-56
2023/08/24 12:34:45;;;;;;;5.28;1.60;;;;;;;26.71;44.27;100611.47;1677224;84;21265;-55
2023/08/24 12:37:53;;;;;;;3.47;1.35;;;;;;;26.73;44.20;100613.45;1676452;84;21725;-56
2023/08/24 12:40:59;;;;;;;2.62;1.60;;;;;;;26.70;44.12;100613.46;1678923;84;21717;-56
2023/08/24 12:44:07;;;;;;;2.70;1.60;;;;;;;26.70;44.07;100612.06;1651684;85;21243;-57
2023/08/24 12:47:13;;;;;;;5.78;1.75;;;;;;;26.72;43.93;100605.58;1669823;83;21259;-56
2023/08/24 12:50:18;;;;;;;7.87;1.87;;;;;;;26.69;43.90;100592.09;1708700;83;21682;-55
2023/08/24 12:53:26;;;;;;;5.65;1.50;;;;;;;26.70;43.85;100600.82;1712748;83;21421;-55
2023/08/24 12:56:40;;;;;;;4.53;1.90;;;;;;;26.73;43.82;100594.65;1706637;83;21328;-56
2023/08/24 12:59:46;;;;;;;3.55;1.65;;;;;;;26.67;43.65;100599.94;1653051;85;21247;-56
2023/08/24 13:02:54;;;;;;;5.37;2.05;;;;;;;26.65;43.58;100588.70;1662387;82;21570;-56
2023/08/24 13:06:00;;;;;;;7.67;3.45;;;;;;;26.65;43.56;100591.52;1684536;83;21494;-55
2023/08/24 13:09:08;;;;;;;4.83;2.37;;;;;;;26.67;43.51;100585.89;1701534;82;21293;-55
2023/08/24 13:12:15;;;;;;;4.83;2.02;;;;;;;26.70;43.42;100587.32;1670795;84;21238;-55
2023/08/24 13:15:24;;;;;;;4.50;1.90;;;;;;;26.71;43.30;100584.78;1648855;85;21272;-57
2023/08/24 13:18:30;;;;;;;4.22;1.98;;;;;;;26.69;43.20;100579.45;1673105;83;21844;-55
2023/08/24 13:21:35;;;;;;;2.55;1.50;;;;;;;26.69;43.10;100575.23;1693139;84;21742;-56
2023/08/24 13:24:42;;;;;;;7.60;1.72;;;;;;;26.67;42.92;100571.84;1657209;86;21231;-56
2023/08/24 13:27:49;;;;;;;2.37;1.40;;;;;;;26.64;42.86;100571.00;1625264;86;21292;-58
2023/08/24 13:30:56;;;;;;;5.50;1.60;;;;;;;26.69;42.83;100573.83;1692338;83;21797;-59
2023/08/24 13:34:04;;;;;;;3.08;1.32;;;;;;;26.70;42.69;100573.28;1675126;84;21598;-56
2023/08/24 13:37:09;;;;;;;2.60;1.57;;;;;;;26.70;42.61;100568.52;1703706;83;21753;-54
2023/08/24 13:40:16;;;;;;;6.53;1.60;;;;;;;26.71;42.49;100569.33;1687484;83;21232;-57
2023/08/24 13:43:22;;;;;;;7.10;1.95;;;;;;;26.71;42.31;100579.17;1676693;83;21232;-55
2023/08/24 13:46:29;;;;;;;5.20;1.77;;;;;;;26.69;42.20;100572.42;1694223;84;21365;-57
2023/08/24 13:49:34;;;;;;;3.67;1.75;;;;;;;26.57;42.02;100569.55;1674280;84;21262;-58
2023/08/24 13:52:41;;;;;;;3.60;1.50;;;;;;;26.50;41.98;100565.59;1691156;83;21911;-58
2023/08/24 13:55:48;;;;;;;2.60;1.60;;;;;;;26.54;41.99;100567.30;1698172;83;21784;-57
2023/08/24 13:58:54;;;;;;;3.77;1.90;;;;;;;26.55;41.93;100565.61;1687253;83;21362;-55
2023/08/24 14:02:01;;;;;;;3.80;1.90;;;;;;;26.52;41.82;100565.31;1690463;84;21252;-56
2023/08/24 14:05:09;;;;;;;6.60;2.20;;;;;;;26.48;41.79;100564.47;1747004;82;21346;-58
2023/08/24 14:08:14;;;;;;;4.37;1.62;;;;;;;26.41;41.70;100568.66;1723440;82;21500;-57
2023/08/24 14:11:20;;;;;;;5.60;1.90;;;;;;;26.33;41.60;100566.37;1727021;80;21261;-56
2023/08/24 14:14:26;;;;;;;5.65;1.82;;;;;;;26.32;41.60;100567.51;1724432;83;21212;-55
2023/08/24 14:17:32;;;;;;;4.03;2.05;;;;;;;26.36;41.61;100568.08;1724785;83;21379;-56
2023/08/24 14:20:38;;;;;;;6.47;1.82;;;;;;;26.46;41.50;100563.06;1725260;83;21232;-57
2023/08/24 14:23:44;;;;;;;4.92;2.00;;;;;;;26.52;41.36;100567.57;1717966;83;21252;-54
2023/08/24 14:26:50;;;;;;;4.87;2.00;;;;;;;26.51;41.32;100561.69;1746655;81;21348;-56